Time;durP1;ratioP1;P1;durP2;ratioP2;P2;SDS_P1;SDS_P2;PMS_P1;PMS_P2;Temp;Humidity;BMP_temperature;BMP_pressure;BME280_temperature;BME280_humidity;BME280_pressure;Samples;Min_cycle;Max_cycle;Signal;HPM_P1;HPM_P2
2023/04/22 00:00:20;;;;;;;15.02;8.75;;;10.70;99.90;;;;;;5137413;27;20200;-88
2023/04/22 00:02:47;;;;;;;16.08;9.38;;;10.80;99.90;;;;;;5118035;27;20196;-87
2023/04/22 00:05:17;;;;;;;13.32;8.57;;;11.30;99.90;;;;;;5135675;27;20691;-87
2023/04/22 00:07:46;;;;;;;11.45;8.80;;;11.00;99.90;;;;;;5125799;27;20189;-87
2023/04/22 00:10:13;;;;;;;11.85;8.82;;;11.10;99.90;;;;;;5109536;28;20444;-88
2023/04/22 00:12:40;;;;;;;10.45;7.75;;;11.10;99.90;;;;;;5121381;27;20725;-89
2023/04/22 00:15:08;;;;;;;9.98;8.20;;;10.70;99.90;;;;;;5119719;27;20270;-88
2023/04/22 00:17:49;;;;;;;15.82;8.48;;;10.60;99.90;;;;;;5134113;27;20239;-89
2023/04/22 00:20:24;;;;;;;12.13;9.00;;;10.30;99.90;;;;;;5123208;28;20200;-90
2023/04/22 00:22:51;;;;;;;9.63;8.63;;;10.10;99.90;;;;;;5123187;28;20207;-89
2023/04/22 00:25:18;;;;;;;15.43;9.57;;;10.20;99.90;;;;;;5115525;27;20212;-88
2023/04/22 00:27:48;;;;;;;17.20;10.80;;;10.90;99.90;;;;;;5125389;27;20211;-88
2023/04/22 00:30:15;;;;;;;14.80;10.40;;;10.10;99.90;;;;;;5132098;27;20208;-89
2023/04/22 00:32:42;;;;;;;12.95;8.90;;;11.10;99.90;;;;;;5116060;27;20296;-88
2023/04/22 00:35:09;;;;;;;15.82;12.50;;;10.70;99.90;;;;;;5105849;28;20201;-88
2023/04/22 00:37:39;;;;;;;14.63;11.98;;;9.60;99.90;;;;;;5118928;27;20274;-89
2023/04/22 00:40:07;;;;;;;13.25;10.20;;;10.60;99.90;;;;;;5130178;27;20277;-88
2023/04/22 00:42:35;;;;;;;11.02;9.70;;;9.70;99.90;;;;;;5132744;27;20214;-88
2023/04/22 00:45:03;;;;;;;16.52;12.27;;;9.80;99.90;;;;;;5130016;27;20246;-89
2023/04/22 00:47:34;;;;;;;17.85;12.63;;;9.50;99.90;;;;;;5107074;28;20257;-88
2023/04/22 00:50:05;;;;;;;14.98;13.18;;;9.60;99.90;;;;;;5134997;27;20210;-88
2023/04/22 00:52:34;;;;;;;17.60;11.88;;;9.40;99.90;;;;;;5110297;27;20450;-90
2023/04/22 00:55:02;;;;;;;18.35;12.25;;;10.30;99.90;;;;;;5123299;27;20214;-88
2023/04/22 00:57:33;;;;;;;22.25;14.43;;;9.50;99.90;;;;;;5117202;27;20203;-88
2023/04/22 01:00:00;;;;;;;14.93;10.45;;;9.40;99.90;;;;;;5130728;27;20262;-89
2023/04/22 01:02:28;;;;;;;17.52;12.38;;;10.20;99.90;;;;;;5128703;28;20229;-87
2023/04/22 01:04:56;;;;;;;15.00;12.40;;;10.00;99.90;;;;;;5139258;27;20271;-89
2023/04/22 01:07:23;;;;;;;15.50;12.35;;;10.20;99.90;;;;;;5129193;27;20347;-88
2023/04/22 01:09:50;;;;;;;17.92;13.35;;;9.10;99.90;;;;;;5132875;27;20190;-84
2023/04/22 01:12:19;;;;;;;17.85;12.13;;;9.30;99.90;;;;;;5125373;27;20218;-85
2023/04/22 01:14:46;;;;;;;17.92;13.93;;;8.80;99.90;;;;;;5121608;28;20196;-85
2023/04/22 01:17:15;;;;;;;21.77;13.68;;;9.20;99.90;;;;;;5133919;27;20201;-85
2023/04/22 01:19:43;;;;;;;18.02;13.75;;;9.30;99.90;;;;;;5123997;27;20220;-86
2023/04/22 01:22:12;;;;;;;18.80;11.90;;;8.90;99.90;;;;;;5133858;27;20270;-85
2023/04/22 01:24:40;;;;;;;16.02;11.52;;;9.30;99.90;;;;;;5139578;27;20208;-84
2023/04/22 01:27:07;;;;;;;16.25;12.85;;;8.50;99.90;;;;;;5121298;28;20337;-85
2023/04/22 01:29:36;;;;;;;16.27;12.23;;;9.30;99.90;;;;;;5137783;27;20304;-84
2023/04/22 01:32:04;;;;;;;16.13;11.38;;;8.90;99.90;;;;;;5113167;28;20269;-86
2023/04/22 01:34:32;;;;;;;16.80;12.00;;;8.90;99.90;;;;;;5121374;27;20478;-84
2023/04/22 01:37:01;;;;;;;17.30;12.85;;;8.80;99.90;;;;;;5126857;27;20205;-84
2023/04/22 01:39:29;;;;;;;18.88;13.40;;;8.90;99.90;;;;;;5128564;27;20207;-85
2023/04/22 01:41:57;;;;;;;16.73;12.48;;;8.80;99.90;;;;;;5128405;27;20203;-85
2023/04/22 01:44:25;;;;;;;14.88;13.25;;;8.80;99.90;;;;;;5134774;27;20223;-84
2023/04/22 01:46:53;;;;;;;19.30;12.20;;;8.80;99.90;;;;;;5122567;28;20222;-84
2023/04/22 01:49:21;;;;;;;16.10;12.05;;;9.00;99.90;;;;;;5143551;27;20190;-86
2023/04/22 01:51:48;;;;;;;16.20;13.38;;;9.90;99.90;;;;;;5148838;27;20182;-85
2023/04/22 01:54:15;;;;;;;16.95;14.13;;;8.70;99.90;;;;;;5129841;27;20224;-85
2023/04/22 01:56:50;;;;;;;18.77;12.43;;;9.50;99.90;;;;;;5116615;27;20709;-85
2023/04/22 01:59:16;;;;;;;17.10;12.75;;;8.60;99.90;;;;;;5119165;27;20192;-85
2023/04/22 02:01:44;;;;;;;14.35;12.43;;;9.20;99.90;;;;;;5130191;27;20684;-85
2023/04/22 02:04:14;;;;;;;23.17;14.07;;;9.10;99.90;;;;;;5112204;28;20259;-85
2023/04/22 02:06:42;;;;;;;15.50;12.25;;;8.50;99.90;;;;;;5103345;27;20229;-85
2023/04/22 02:09:09;;;;;;;20.50;15.02;;;8.40;99.90;;;;;;5128712;27;20777;-86
2023/04/22 02:11:36;;;;;;;17.50;13.60;;;8.50;99.90;;;;;;5129012;27;20241;-85
2023/04/22 02:14:05;;;;;;;20.40;12.68;;;8.70;99.90;;;;;;5123120;28;20218;-85
2023/04/22 02:16:32;;;;;;;21.58;13.80;;;8.60;99.90;;;;;;5133751;27;20209;-85
2023/04/22 02:18:59;;;;;;;18.58;13.40;;;8.70;99.90;;;;;;5108304;28;20240;-86
2023/04/22 02:21:33;;;;;;;18.25;13.38;;;8.60;99.90;;;;;;5127629;28;20292;-85
2023/04/22 02:24:01;;;;;;;18.48;12.93;;;8.60;99.90;;;;;;5132102;27;20194;-87
2023/04/22 02:26:29;;;;;;;21.05;14.48;;;8.60;99.90;;;;;;5135682;27;20208;-87
2023/04/22 02:28:56;;;;;;;19.55;13.07;;;8.90;99.90;;;;;;5123744;27;20657;-86
2023/04/22 02:31:23;;;;;;;18.27;14.07;;;8.70;99.90;;;;;;5119887;28;20371;-87
2023/04/22 02:33:50;;;;;;;21.90;15.85;;;8.40;99.90;;;;;;5138922;27;20228;-86
2023/04/22 02:36:19;;;;;;;14.68;11.50;;;8.40;99.90;;;;;;5137105;27;20207;-87
2023/04/22 02:38:48;;;;;;;18.25;13.82;;;8.10;99.90;;;;;;5111443;27;20205;-87
2023/04/22 02:41:29;;;;;;;;;;;;;;;;;;;;;
2023/04/22 02:43:56;;;;;;;21.60;14.65;;;8.80;99.90;;;;;;5133879;27;20260;-88
2023/04/22 02:46:24;;;;;;;15.95;13.93;;;7.90;99.90;;;;;;5116979;27;20212;-89
2023/04/22 02:48:55;;;;;;;18.55;14.85;;;7.70;99.90;;;;;;5130730;27;20194;-87
2023/04/22 02:51:23;;;;;;;24.10;16.00;;;8.30;99.90;;;;;;5115350;28;20281;-85
2023/04/22 02:53:50;;;;;;;23.42;14.45;;;8.30;99.90;;;;;;5138563;27;20233;-86
2023/04/22 02:56:17;;;;;;;21.15;17.92;;;8.30;99.90;;;;;;5127915;27;20200;-86
2023/04/22 02:58:46;;;;;;;18.90;14.52;;;8.50;99.90;;;;;;5128691;27;20205;-86
2023/04/22 03:01:16;;;;;;;20.05;14.88;;;8.40;99.90;;;;;;5120447;27;20196;-86
2023/04/22 03:03:44;;;;;;;19.40;14.38;;;8.10;99.90;;;;;;5138296;27;20203;-85
2023/04/22 03:06:11;;;;;;;19.17;13.68;;;8.50;99.90;;;;;;5140377;27;20201;-86
2023/04/22 03:08:41;;;;;;;22.17;14.63;;;8.40;99.90;;;;;;5127813;27;20211;-86
2023/04/22 03:11:07;;;;;;;17.17;13.00;;;8.50;99.90;;;;;;5137693;27;20566;-87
2023/04/22 03:13:36;;;;;;;19.65;14.10;;;8.60;99.90;;;;;;5126027;27;20225;-86
2023/04/22 03:16:05;;;;;;;15.88;13.45;;;8.60;99.90;;;;;;5130917;27;20224;-87
2023/04/22 03:18:34;;;;;;;17.58;13.48;;;8.60;99.90;;;;;;5108626;28;20217;-86
2023/04/22 03:21:02;;;;;;;13.23;11.77;;;8.60;99.90;;;;;;5129159;27;20247;-86
2023/04/22 03:23:34;;;;;;;19.15;14.85;;;8.60;99.90;;;;;;5132942;27;20268;-86
2023/04/22 03:26:01;;;;;;;20.30;14.95;;;8.50;99.90;;;;;;5137845;27;20196;-86
2023/04/22 03:28:28;;;;;;;20.83;15.00;;;8.40;99.90;;;;;;5144906;27;20215;-87
2023/04/22 03:30:55;;;;;;;20.10;15.20;;;8.60;99.90;;;;;;5141097;27;20201;-88
2023/04/22 03:33:26;;;;;;;18.17;14.98;;;8.00;99.90;;;;;;5132411;27;20228;-87
2023/04/22 03:35:54;;;;;;;18.08;12.98;;;8.00;99.90;;;;;;5126514;27;20283;-86
2023/04/22 03:38:21;;;;;;;20.83;15.20;;;8.90;99.90;;;;;;5139277;27;20206;-86
2023/04/22 03:40:49;;;;;;;16.52;13.90;;;7.80;99.90;;;;;;5109385;27;20202;-87
2023/04/22 03:43:19;;;;;;;21.75;14.60;;;8.10;99.90;;;;;;5126690;27;20206;-85
2023/04/22 03:45:50;;;;;;;19.60;14.50;;;7.90;99.90;;;;;;5110206;27;20781;-85
2023/04/22 03:48:19;;;;;;;22.00;15.48;;;8.20;99.90;;;;;;5136864;27;20218;-87
2023/04/22 03:50:49;;;;;;;24.00;13.88;;;9.30;99.90;;;;;;5139187;27;20208;-88
2023/04/22 03:53:16;;;;;;;19.23;14.50;;;8.60;99.90;;;;;;5111754;27;20223;-90
2023/04/22 03:55:52;;;;;;;20.25;13.93;;;8.40;99.90;;;;;;5128469;27;20240;-89
2023/04/22 03:58:32;;;;;;;23.42;14.93;;;8.90;99.90;;;;;;5132646;27;20780;-90
2023/04/22 04:01:10;;;;;;;18.83;14.45;;;8.50;99.90;;;;;;5129580;27;20231;-89
2023/04/22 04:03:42;;;;;;;23.63;15.93;;;8.60;99.90;;;;;;5122448;27;20197;-92
2023/04/22 04:06:13;;;;;;;19.83;16.02;;;8.70;99.90;;;;;;5108014;28;20221;-89
2023/04/22 04:08:44;;;;;;;22.77;14.82;;;8.60;99.90;;;;;;5127651;27;20205;-92
2023/04/22 04:11:20;;;;;;;25.05;16.58;;;8.20;99.90;;;;;;5117551;27;20271;-90
2023/04/22 04:14:01;;;;;;;22.13;14.60;;;8.70;99.90;;;;;;5109898;28;20233;-89
2023/04/22 04:16:36;;;;;;;24.13;14.00;;;8.40;99.90;;;;;;5104674;27;20196;-91
2023/04/22 04:19:05;;;;;;;22.13;15.32;;;9.40;99.90;;;;;;5129798;27;20205;-89
2023/04/22 04:21:33;;;;;;;31.85;16.58;;;9.10;99.90;;;;;;5133971;27;20213;-91
2023/04/22 04:24:03;;;;;;;19.50;15.50;;;9.30;99.90;;;;;;5127314;27;20246;-91
2023/04/22 04:26:33;;;;;;;17.63;13.73;;;8.90;99.90;;;;;;5112577;27;20471;-87
2023/04/22 04:29:00;;;;;;;22.05;15.32;;;9.50;99.90;;;;;;5125825;27;20292;-84
2023/04/22 04:31:28;;;;;;;22.08;15.10;;;8.80;99.90;;;;;;5126950;27;20792;-87
2023/04/22 04:33:58;;;;;;;21.30;14.48;;;8.90;99.90;;;;;;5126712;27;20227;-87
2023/04/22 04:36:27;;;;;;;21.52;13.00;;;9.40;99.90;;;;;;5133743;27;20201;-87
2023/04/22 04:38:55;;;;;;;15.45;12.15;;;9.50;99.90;;;;;;5109224;28;20222;-87
2023/04/22 04:41:25;;;;;;;22.88;13.73;;;10.00;99.90;;;;;;5124637;27;20242;-86
2023/04/22 04:43:59;;;;;;;13.82;12.02;;;10.10;99.90;;;;;;5129719;27;20207;-87
2023/04/22 04:46:31;;;;;;;19.23;13.40;;;10.20;99.90;;;;;;5122601;27;20205;-87
2023/04/22 04:49:00;;;;;;;16.30;13.38;;;10.40;99.90;;;;;;5109816;27;20272;-86
2023/04/22 04:51:27;;;;;;;20.88;10.82;;;10.20;99.90;;;;;;5103717;28;20213;-87
2023/04/22 04:53:58;;;;;;;18.58;13.25;;;11.00;99.90;;;;;;5126464;27;20303;-87
2023/04/22 04:56:27;;;;;;;18.52;11.88;;;10.50;99.90;;;;;;5104871;28;20299;-86
2023/04/22 04:58:55;;;;;;;14.82;12.05;;;10.00;99.90;;;;;;5119655;27;20400;-87
2023/04/22 05:01:22;;;;;;;16.95;11.20;;;10.80;99.90;;;;;;5124949;27;20215;-86
2023/04/22 05:03:49;;;;;;;17.98;11.77;;;10.70;99.90;;;;;;5135813;27;20207;-86
2023/04/22 05:06:18;;;;;;;23.42;12.95;;;10.90;99.90;;;;;;5134275;27;20202;-87
2023/04/22 05:08:46;;;;;;;20.13;14.65;;;11.20;99.90;;;;;;5107146;28;20422;-86
2023/04/22 05:11:15;;;;;;;19.40;12.73;;;10.80;99.90;;;;;;5124536;27;20206;-86
2023/04/22 05:13:43;;;;;;;16.13;12.77;;;10.90;99.90;;;;;;5134379;27;20233;-86
2023/04/22 05:16:11;;;;;;;17.13;12.02;;;11.10;99.90;;;;;;5128171;27;20201;-86
2023/04/22 05:18:39;;;;;;;17.88;11.68;;;11.00;99.90;;;;;;5128818;27;20273;-86
2023/04/22 05:21:06;;;;;;;18.02;12.95;;;11.10;99.90;;;;;;5127520;27;20206;-85
2023/04/22 05:23:33;;;;;;;15.10;10.65;;;11.00;99.90;;;;;;5135917;27;20243;-84
2023/04/22 05:26:00;;;;;;;19.75;13.05;;;11.00;99.90;;;;;;5127803;27;20220;-84
2023/04/22 05:28:28;;;;;;;14.52;12.20;;;11.20;99.90;;;;;;5125166;27;20202;-86
2023/04/22 05:30:55;;;;;;;12.25;11.02;;;11.40;99.90;;;;;;5135625;27;20213;-84
2023/04/22 05:33:24;;;;;;;14.65;11.52;;;11.10;99.90;;;;;;5134244;27;20222;-84
2023/04/22 05:35:52;;;;;;;21.20;11.07;;;11.30;99.90;;;;;;5127865;27;20193;-82
2023/04/22 05:38:19;;;;;;;16.48;11.50;;;11.50;99.90;;;;;;5125478;27;20468;-83
2023/04/22 05:40:46;;;;;;;13.52;11.73;;;11.70;99.90;;;;;;5129326;27;20216;-84
2023/04/22 05:43:14;;;;;;;18.55;12.93;;;11.70;99.90;;;;;;5138728;27;20475;-85
2023/04/22 05:45:41;;;;;;;16.52;12.07;;;12.00;99.90;;;;;;5140226;27;20201;-84
2023/04/22 05:48:08;;;;;;;15.82;11.52;;;12.40;99.90;;;;;;5141366;27;20213;-85
2023/04/22 05:50:36;;;;;;;16.90;11.65;;;12.30;99.90;;;;;;5144844;27;20217;-83
2023/04/22 05:53:04;;;;;;;12.95;10.07;;;12.30;99.90;;;;;;5131058;27;20189;-83
2023/04/22 05:55:31;;;;;;;18.92;11.48;;;12.40;99.90;;;;;;5121460;28;20519;-83
2023/04/22 05:57:58;;;;;;;14.35;10.55;;;12.70;99.90;;;;;;5125891;27;20408;-84
2023/04/22 06:00:24;;;;;;;13.98;10.75;;;13.20;99.90;;;;;;5106455;27;20205;-81
2023/04/22 06:02:51;;;;;;;12.82;9.68;;;13.60;99.90;;;;;;5120958;27;20201;-83
2023/04/22 06:05:18;;;;;;;12.85;9.73;;;14.10;99.90;;;;;;5123081;27;20544;-82
2023/04/22 06:07:46;;;;;;;14.20;10.37;;;14.20;99.90;;;;;;5133287;27;20280;-81
2023/04/22 06:10:12;;;;;;;11.80;9.30;;;14.60;99.90;;;;;;5124921;27;20859;-82
2023/04/22 06:12:39;;;;;;;14.90;11.30;;;14.60;99.90;;;;;;5132526;27;20510;-81
2023/04/22 06:15:07;;;;;;;14.10;10.17;;;14.50;99.90;;;;;;5134000;27;20533;-82
2023/04/22 06:17:34;;;;;;;19.53;10.33;;;14.60;99.90;;;;;;5135902;27;20414;-83
2023/04/22 06:20:02;;;;;;;11.93;10.07;;;14.90;99.90;;;;;;5123495;27;20924;-81
2023/04/22 06:22:29;;;;;;;13.13;10.03;;;15.10;99.90;;;;;;5133128;28;20601;-79
2023/04/22 06:24:55;;;;;;;12.70;9.07;;;15.30;99.90;;;;;;5129801;28;20777;-81
2023/04/22 06:27:25;;;;;;;11.87;10.60;;;15.50;99.90;;;;;;5120639;28;20485;-81
2023/04/22 06:29:52;;;;;;;16.63;10.83;;;15.60;99.90;;;;;;5108393;28;20428;-81
2023/04/22 06:32:19;;;;;;;20.63;9.70;;;15.50;99.90;;;;;;5127607;28;20849;-86
2023/04/22 06:34:47;;;;;;;15.43;10.63;;;15.90;99.90;;;;;;5134502;28;20476;-88
2023/04/22 06:37:14;;;;;;;15.23;11.33;;;17.00;99.90;;;;;;5115389;28;20630;-86
2023/04/22 06:39:42;;;;;;;12.20;10.33;;;17.80;99.90;;;;;;5130183;28;20408;-86
2023/04/22 06:42:10;;;;;;;12.43;9.57;;;17.50;99.90;;;;;;5143282;28;20697;-86
2023/04/22 06:44:37;;;;;;;21.37;10.67;;;17.80;99.90;;;;;;5114397;28;20407;-85
2023/04/22 06:47:04;;;;;;;15.23;10.23;;;18.00;99.90;;;;;;5126954;28;20800;-86
2023/04/22 06:49:37;;;;;;;12.83;11.50;;;18.50;99.90;;;;;;5122777;28;20423;-84
2023/04/22 06:52:05;;;;;;;12.80;10.97;;;18.60;99.90;;;;;;5111075;28;20452;-82
2023/04/22 06:54:32;;;;;;;15.00;11.30;;;18.70;99.90;;;;;;5134597;28;20553;-87
2023/04/22 06:57:00;;;;;;;13.70;10.20;;;18.60;99.90;;;;;;5125292;28;20462;-82
2023/04/22 06:59:27;;;;;;;13.13;11.70;;;18.70;99.90;;;;;;5126126;28;20424;-84
2023/04/22 07:01:54;;;;;;;16.33;12.20;;;19.20;99.90;;;;;;5131257;28;20706;-83
2023/04/22 07:04:21;;;;;;;11.30;10.17;;;20.60;99.90;;;;;;5103022;28;20435;-82
2023/04/22 07:06:49;;;;;;;12.63;11.27;;;22.10;99.50;;;;;;5127877;28;20441;-84
2023/04/22 07:09:15;;;;;;;16.13;12.33;;;24.10;90.80;;;;;;5133989;27;20485;-83
2023/04/22 07:11:45;;;;;;;16.30;11.87;;;25.40;80.60;;;;;;5128679;27;20430;-84
2023/04/22 07:14:17;;;;;;;17.40;10.80;;;26.00;73.60;;;;;;5136724;27;20507;-83
2023/04/22 07:16:44;;;;;;;16.50;11.17;;;27.20;66.70;;;;;;5127484;27;20431;-84
2023/04/22 07:19:11;;;;;;;16.50;11.20;;;28.50;60.70;;;;;;5130036;27;20458;-82
2023/04/22 07:21:38;;;;;;;19.30;11.80;;;29.30;55.80;;;;;;5128261;27;20422;-84
2023/04/22 07:24:05;;;;;;;13.33;12.03;;;28.80;55.90;;;;;;5127237;27;20494;-83
2023/04/22 07:26:35;;;;;;;16.10;11.90;;;28.10;56.20;;;;;;5131110;27;20551;-83
2023/04/22 07:29:06;;;;;;;13.40;12.10;;;29.50;54.50;;;;;;5131236;27;20454;-84
2023/04/22 07:31:35;;;;;;;15.03;11.50;;;29.50;52.70;;;;;;5132028;27;20441;-84
2023/04/22 07:34:03;;;;;;;12.90;11.70;;;31.00;51.80;;;;;;5125567;27;20898;-84
2023/04/22 07:36:33;;;;;;;13.80;11.50;;;32.20;49.10;;;;;;5135324;27;20494;-83
2023/04/22 07:39:00;;;;;;;13.73;12.47;;;31.90;48.20;;;;;;5122247;27;20819;-84
2023/04/22 07:41:28;;;;;;;14.63;12.40;;;31.90;47.60;;;;;;5128382;27;20434;-84
2023/04/22 07:43:55;;;;;;;16.70;13.47;;;31.10;48.30;;;;;;5129858;27;20777;-84
2023/04/22 07:46:25;;;;;;;14.60;13.03;;;30.90;48.40;;;;;;5128321;27;20624;-85
2023/04/22 07:48:52;;;;;;;15.40;13.80;;;32.00;47.60;;;;;;5127335;27;20434;-84
2023/04/22 07:51:19;;;;;;;15.33;12.13;;;33.80;46.10;;;;;;5130392;27;20886;-84
2023/04/22 07:53:46;;;;;;;12.50;11.30;;;34.30;44.60;;;;;;5128787;27;20445;-84
2023/04/22 07:56:13;;;;;;;11.60;10.40;;;32.60;43.90;;;;;;5126698;27;20442;-81
2023/04/22 07:58:39;;;;;;;11.63;10.47;;;31.80;44.20;;;;;;5125276;27;20634;-85
2023/04/22 08:01:06;;;;;;;14.27;11.83;;;31.10;44.90;;;;;;5126780;27;20442;-83
2023/04/22 08:03:34;;;;;;;13.60;12.00;;;30.90;45.40;;;;;;5140136;27;20461;-84
2023/04/22 08:06:01;;;;;;;12.80;11.53;;;30.50;45.20;;;;;;5136247;27;20457;-84
2023/04/22 08:08:28;;;;;;;11.90;10.60;;;28.90;47.70;;;;;;5130751;27;20451;-83
2023/04/22 08:10:55;;;;;;;14.20;12.23;;;27.70;50.50;;;;;;5115389;27;20511;-84
2023/04/22 08:13:29;;;;;;;19.50;12.57;;;28.80;49.30;;;;;;5135695;27;20478;-87
2023/04/22 08:16:02;;;;;;;13.27;11.87;;;30.10;47.80;;;;;;5126790;27;20465;-87
2023/04/22 08:18:29;;;;;;;12.87;11.67;;;31.20;46.20;;;;;;5107734;28;20446;-87
2023/04/22 08:20:55;;;;;;;12.37;11.07;;;31.30;45.50;;;;;;5127060;27;20446;-85
2023/04/22 08:23:22;;;;;;;11.30;10.10;;;30.80;46.40;;;;;;5108462;27;20553;-86
2023/04/22 08:25:50;;;;;;;11.90;10.30;;;31.10;45.80;;;;;;5123161;27;20453;-86
2023/04/22 08:28:19;;;;;;;15.00;13.60;;;31.50;46.00;;;;;;5128448;27;20453;-86
2023/04/22 08:30:48;;;;;;;12.87;11.57;;;31.30;45.20;;;;;;5129400;27;20445;-87
2023/04/22 08:33:20;;;;;;;13.83;12.43;;;32.20;45.50;;;;;;5126221;27;20601;-88
2023/04/22 08:35:47;;;;;;;15.00;12.10;;;32.20;44.30;;;;;;5131251;27;20486;-86
2023/04/22 08:38:14;;;;;;;15.30;11.97;;;31.50;44.70;;;;;;5137225;27;20441;-86
2023/04/22 08:40:42;;;;;;;14.00;12.80;;;31.00;46.00;;;;;;5116986;27;20445;-89
2023/04/22 08:43:10;;;;;;;13.80;12.03;;;31.10;46.40;;;;;;5130476;27;20731;-84
2023/04/22 08:45:38;;;;;;;12.33;11.13;;;31.50;45.00;;;;;;5123233;27;20642;-86
2023/04/22 08:48:08;;;;;;;12.67;11.47;;;30.90;45.50;;;;;;5130620;27;20449;-84
2023/04/22 08:50:39;;;;;;;11.67;10.43;;;31.60;44.80;;;;;;5102144;28;20533;-84
2023/04/22 08:53:06;;;;;;;13.30;11.40;;;33.00;43.30;;;;;;5109992;28;20442;-85
2023/04/22 08:55:35;;;;;;;13.53;9.97;;;33.50;43.00;;;;;;5109570;28;20547;-85
2023/04/22 08:58:04;;;;;;;11.27;9.00;;;33.60;42.60;;;;;;5110144;27;20804;-86
2023/04/22 09:00:33;;;;;;;11.67;10.47;;;33.70;40.70;;;;;;5132773;27;20449;-85
2023/04/22 09:03:01;;;;;;;9.87;8.87;;;31.10;42.80;;;;;;5123398;27;20467;-86
2023/04/22 09:05:32;;;;;;;8.87;7.87;;;31.50;42.60;;;;;;5133129;27;20510;-86
2023/04/22 09:08:00;;;;;;;9.13;8.33;;;30.20;42.00;;;;;;5128513;27;20691;-86
2023/04/22 09:10:30;;;;;;;10.30;9.27;;;30.70;43.50;;;;;;5129070;27;20448;-85
2023/04/22 09:13:02;;;;;;;8.17;7.37;;;30.20;44.20;;;;;;5116314;28;20429;-84
2023/04/22 09:15:30;;;;;;;12.70;9.00;;;30.90;43.00;;;;;;5119122;28;20473;-87
2023/04/22 09:17:57;;;;;;;13.40;9.83;;;30.10;43.80;;;;;;5133609;27;20437;-86
2023/04/22 09:20:26;;;;;;;10.50;9.37;;;29.10;45.50;;;;;;5131013;27;20780;-85
2023/04/22 09:22:54;;;;;;;8.67;7.80;;;28.50;47.40;;;;;;5126645;27;20477;-83
2023/04/22 09:25:24;;;;;;;10.00;9.00;;;29.40;45.90;;;;;;5125170;27;20442;-85
2023/04/22 09:27:54;;;;;;;10.97;7.23;;;27.70;47.20;;;;;;5137728;27;20436;-86
2023/04/22 09:30:35;;;;;;;6.67;6.07;;;25.70;49.80;;;;;;5130898;27;20519;-85
2023/04/22 09:33:04;;;;;;;5.90;5.37;;;24.40;50.30;;;;;;5130038;27;20801;-84
2023/04/22 09:35:35;;;;;;;6.70;5.90;;;23.40;51.70;;;;;;5141552;27;20451;-86
2023/04/22 09:38:07;;;;;;;7.60;6.73;;;22.30;54.50;;;;;;5130371;27;20445;-85
2023/04/22 09:40:36;;;;;;;6.40;5.77;;;21.90;56.20;;;;;;5129368;27;20437;-85
2023/04/22 09:43:06;;;;;;;6.10;5.60;;;21.00;56.90;;;;;;5150731;27;20440;-86
2023/04/22 09:45:39;;;;;;;5.33;4.33;;;21.10;59.20;;;;;;5111102;28;20426;-86
2023/04/22 09:48:14;;;;;;;5.40;4.83;;;21.10;57.40;;;;;;5095228;28;20440;-86
2023/04/22 09:50:46;;;;;;;5.30;4.20;;;21.10;55.20;;;;;;5126524;27;20408;-83
2023/04/22 09:53:16;;;;;;;5.63;4.33;;;21.20;53.80;;;;;;5129731;27;20419;-86
2023/04/22 09:55:47;;;;;;;5.30;4.67;;;20.90;54.00;;;;;;5134298;27;20448;-85
2023/04/22 09:58:16;;;;;;;4.13;3.73;;;20.80;55.20;;;;;;5112436;27;20469;-85
2023/04/22 10:00:53;;;;;;;3.90;3.60;;;20.90;55.40;;;;;;5133847;27;20418;-84
2023/04/22 10:03:20;;;;;;;4.40;3.83;;;20.80;51.80;;;;;;5101503;28;20595;-84
2023/04/22 10:05:47;;;;;;;5.60;5.00;;;21.10;54.80;;;;;;5134399;27;20433;-86
2023/04/22 10:08:16;;;;;;;4.47;4.03;;;20.70;54.20;;;;;;5138808;27;20411;-84
2023/04/22 10:10:43;;;;;;;4.50;3.77;;;20.40;54.70;;;;;;5132844;27;20421;-85
2023/04/22 10:13:10;;;;;;;4.77;3.73;;;20.60;53.90;;;;;;5120413;27;20442;-85
2023/04/22 10:15:49;;;;;;;4.70;3.20;;;20.60;54.90;;;;;;5125662;27;20472;-85
2023/04/22 10:18:20;;;;;;;4.33;3.90;;;20.40;55.70;;;;;;5135241;27;20598;-86
2023/04/22 10:20:48;;;;;;;4.77;4.30;;;20.40;56.40;;;;;;5132020;28;20412;-85
2023/04/22 10:23:20;;;;;;;5.20;4.70;;;20.50;58.70;;;;;;5120177;28;20417;-84
2023/04/22 10:25:56;;;;;;;5.70;4.90;;;20.70;57.00;;;;;;5103039;28;20419;-85
2023/04/22 10:28:27;;;;;;;5.47;5.00;;;20.50;56.60;;;;;;5130244;28;20468;-86
2023/04/22 10:30:56;;;;;;;6.07;4.77;;;20.60;58.40;;;;;;5106971;28;20468;-88
2023/04/22 10:33:23;;;;;;;9.60;4.00;;;20.60;59.10;;;;;;5127854;28;20466;-87
2023/04/22 10:36:09;;;;;;;6.10;5.50;;;20.70;56.80;;;;;;5127772;28;20473;-87
2023/04/22 10:38:51;;;;;;;6.13;5.00;;;20.60;56.90;;;;;;5138689;28;20437;-85
2023/04/22 10:41:23;;;;;;;7.80;5.20;;;20.40;58.80;;;;;;5134722;27;20442;-84
2023/04/22 10:44:04;;;;;;;7.07;5.10;;;20.30;60.40;;;;;;5131286;27;20434;-85
2023/04/22 10:46:36;;;;;;;5.00;4.47;;;20.70;58.30;;;;;;5128608;27;20826;-85
2023/04/22 10:49:12;;;;;;;4.37;3.97;;;20.90;57.90;;;;;;5125092;27;20404;-85
2023/04/22 10:51:43;;;;;;;5.53;4.43;;;20.50;56.30;;;;;;5108820;27;20481;-86
2023/04/22 10:54:35;;;;;;;4.67;4.07;;;20.40;56.60;;;;;;5122593;27;20749;-87
2023/04/22 10:57:10;;;;;;;4.77;4.27;;;20.40;55.50;;;;;;5133550;27;20494;-85
2023/04/22 10:59:53;;;;;;;7.00;4.40;;;20.30;56.50;;;;;;5125967;27;20756;-85
2023/04/22 11:02:22;;;;;;;5.83;4.67;;;20.30;58.10;;;;;;5131113;27;20482;-86
2023/04/22 11:04:53;;;;;;;5.57;3.83;;;20.50;58.60;;;;;;5128254;27;20495;-86
2023/04/22 11:07:26;;;;;;;4.90;4.40;;;20.60;61.00;;;;;;5138534;27;20408;-84
2023/04/22 11:10:05;;;;;;;7.17;4.57;;;20.60;58.70;;;;;;5118317;28;20434;-85
2023/04/22 11:12:38;;;;;;;5.60;4.70;;;20.60;58.90;;;;;;5132886;27;20454;-87
2023/04/22 11:15:07;;;;;;;5.27;4.37;;;20.50;57.40;;;;;;5132860;27;20663;-86
2023/04/22 11:17:35;;;;;;;6.60;4.33;;;20.50;56.80;;;;;;5113595;28;20424;-86
2023/04/22 11:20:04;;;;;;;4.67;4.00;;;20.60;58.50;;;;;;5121522;27;20428;-87
2023/04/22 11:22:41;;;;;;;4.07;3.77;;;20.30;58.50;;;;;;5132549;27;20454;-85
2023/04/22 11:25:11;;;;;;;5.13;3.47;;;20.20;58.80;;;;;;5130627;27;20458;-84
2023/04/22 11:27:42;;;;;;;4.47;4.07;;;20.10;58.70;;;;;;5126097;28;20790;-85
2023/04/22 11:30:18;;;;;;;5.27;4.30;;;20.30;59.70;;;;;;5135152;27;20456;-87
2023/04/22 11:32:51;;;;;;;5.03;4.50;;;20.10;58.70;;;;;;5110086;27;20442;-85
2023/04/22 11:35:25;;;;;;;6.80;5.50;;;19.90;59.10;;;;;;5134466;27;20428;-85
2023/04/22 11:37:57;;;;;;;8.53;5.77;;;19.90;58.80;;;;;;5139182;27;20425;-85
2023/04/22 11:40:27;;;;;;;5.27;4.60;;;19.80;59.10;;;;;;5143589;27;20403;-86
2023/04/22 11:43:00;;;;;;;5.40;4.90;;;19.80;62.50;;;;;;5138307;27;20421;-86
2023/04/22 11:45:31;;;;;;;5.37;4.27;;;20.00;62.90;;;;;;5125634;27;20426;-90
2023/04/22 11:48:01;;;;;;;14.50;4.73;;;20.20;63.10;;;;;;5105221;28;20415;-87
2023/04/22 11:50:34;;;;;;;5.27;4.57;;;20.30;61.40;;;;;;5120896;27;20405;-86
2023/04/22 11:53:04;;;;;;;5.83;4.80;;;20.50;60.10;;;;;;5136658;27;20400;-85
2023/04/22 11:55:34;;;;;;;4.30;3.90;;;20.50;59.70;;;;;;5143346;27;20461;-85
2023/04/22 11:58:10;;;;;;;6.07;4.47;;;20.20;59.20;;;;;;5133166;27;20457;-86
2023/04/22 12:00:37;;;;;;;5.20;4.70;;;20.80;62.40;;;;;;5142464;27;20392;-83
2023/04/22 12:03:11;;;;;;;7.03;5.40;;;20.40;60.70;;;;;;5131268;27;20396;-84
2023/04/22 12:05:46;;;;;;;6.00;5.17;;;20.60;60.20;;;;;;5121705;27;20436;-85
2023/04/22 12:08:20;;;;;;;5.60;4.53;;;20.60;59.40;;;;;;5144090;27;20416;-85
2023/04/22 12:10:50;;;;;;;6.00;4.53;;;20.60;59.60;;;;;;5139030;27;20615;-86
2023/04/22 12:13:19;;;;;;;4.00;3.70;;;20.60;59.80;;;;;;5135996;27;20400;-84
2023/04/22 12:15:47;;;;;;;5.40;4.90;;;20.50;59.10;;;;;;5137377;27;20507;-85
2023/04/22 12:18:14;;;;;;;4.83;4.07;;;20.60;60.60;;;;;;5143776;27;20396;-84
2023/04/22 12:20:41;;;;;;;8.13;4.93;;;20.60;62.50;;;;;;5147365;27;20392;-85
2023/04/22 12:23:13;;;;;;;4.33;3.80;;;20.50;61.00;;;;;;5138987;27;20449;-85
2023/04/22 12:25:41;;;;;;;4.83;4.43;;;20.70;60.20;;;;;;5126853;27;20441;-84
2023/04/22 12:28:10;;;;;;;5.30;4.80;;;20.60;59.50;;;;;;5140128;27;20477;-86
2023/04/22 12:30:36;;;;;;;5.03;4.53;;;20.40;59.60;;;;;;5127163;27;20454;-84
2023/04/22 12:33:03;;;;;;;5.10;4.40;;;20.20;59.90;;;;;;5130781;27;20476;-86
2023/04/22 12:35:30;;;;;;;5.90;5.33;;;20.20;61.50;;;;;;5125362;27;20492;-83
2023/04/22 12:37:57;;;;;;;5.50;4.93;;;20.20;60.80;;;;;;5124682;27;20675;-83
2023/04/22 12:40:24;;;;;;;5.90;4.40;;;20.10;62.40;;;;;;5132436;27;20866;-82
2023/04/22 12:42:51;;;;;;;3.50;3.20;;;19.90;63.00;;;;;;5111512;27;20804;-84
2023/04/22 12:45:18;;;;;;;6.17;4.40;;;20.20;64.40;;;;;;5133709;27;20425;-83
2023/04/22 12:47:45;;;;;;;6.23;4.73;;;20.00;63.90;;;;;;5135255;27;20416;-82